sensor_id;sensor_type;location;lat;lon;timestamp;P1;durP1;ratioP1;P2;durP2;ratioP2
40252;SDS011;25972;51.854;4.534;2023-07-31T00:01:39;17.15;;;3.83;;
40252;SDS011;25972;51.854;4.534;2023-07-31T00:04:07;11.90;;;3.70;;
40252;SDS011;25972;51.854;4.534;2023-07-31T00:06:33;14.65;;;3.15;;
40252;SDS011;25972;51.854;4.534;2023-07-31T00:08:59;17.60;;;4.28;;
40252;SDS011;25972;51.854;4.534;2023-07-31T00:11:25;15.38;;;2.95;;
40252;SDS011;25972;51.854;4.534;2023-07-31T00:13:52;16.70;;;4.28;;
40252;SDS011;25972;51.854;4.534;2023-07-31T00:16:20;19.42;;;5.05;;
40252;SDS011;25972;51.854;4.534;2023-07-31T00:18:46;16.52;;;3.90;;
40252;SDS011;25972;51.854;4.534;2023-07-31T00:21:14;16.80;;;4.18;;
40252;SDS011;25972;51.854;4.534;2023-07-31T00:23:40;16.80;;;3.97;;
40252;SDS011;25972;51.854;4.534;2023-07-31T00:26:06;24.77;;;5.03;;
40252;SDS011;25972;51.854;4.534;2023-07-31T00:28:32;18.35;;;4.88;;
40252;SDS011;25972;51.854;4.534;2023-07-31T00:30:59;20.20;;;4.78;;
40252;SDS011;25972;51.854;4.534;2023-07-31T00:33:25;22.92;;;5.50;;
40252;SDS011;25972;51.854;4.534;2023-07-31T00:35:51;28.05;;;4.38;;
40252;SDS011;25972;51.854;4.534;2023-07-31T00:38:19;25.35;;;5.43;;
40252;SDS011;25972;51.854;4.534;2023-07-31T00:40:45;16.95;;;4.05;;
40252;SDS011;25972;51.854;4.534;2023-07-31T00:43:11;25.23;;;6.05;;
40252;SDS011;25972;51.854;4.534;2023-07-31T00:45:37;21.90;;;4.78;;
40252;SDS011;25972;51.854;4.534;2023-07-31T00:48:04;20.55;;;5.10;;
40252;SDS011;25972;51.854;4.534;2023-07-31T00:50:33;18.27;;;3.55;;
40252;SDS011;25972;51.854;4.534;2023-07-31T00:53:03;18.42;;;4.82;;
40252;SDS011;25972;51.854;4.534;2023-07-31T00:55:32;9.48;;;3.45;;
40252;SDS011;25972;51.854;4.534;2023-07-31T00:57:59;12.93;;;3.03;;
40252;SDS011;25972;51.854;4.534;2023-07-31T01:00:25;12.52;;;2.97;;
40252;SDS011;25972;51.854;4.534;2023-07-31T01:02:52;8.68;;;3.13;;
40252;SDS011;25972;51.854;4.534;2023-07-31T01:05:18;13.73;;;3.22;;
40252;SDS011;25972;51.854;4.534;2023-07-31T01:07:54;16.40;;;3.55;;
40252;SDS011;25972;51.854;4.534;2023-07-31T01:10:29;12.27;;;3.30;;
40252;SDS011;25972;51.854;4.534;2023-07-31T01:13:00;17.67;;;4.32;;
40252;SDS011;25972;51.854;4.534;2023-07-31T01:15:28;21.67;;;5.03;;
40252;SDS011;25972;51.854;4.534;2023-07-31T01:17:54;15.20;;;3.58;;
40252;SDS011;25972;51.854;4.534;2023-07-31T01:20:21;11.77;;;2.42;;
40252;SDS011;25972;51.854;4.534;2023-07-31T01:22:53;17.52;;;4.13;;
40252;SDS011;25972;51.854;4.534;2023-07-31T01:28:19;15.05;;;3.72;;
40252;SDS011;25972;51.854;4.534;2023-07-31T01:30:53;18.38;;;3.83;;
40252;SDS011;25972;51.854;4.534;2023-07-31T01:33:24;11.02;;;2.65;;
40252;SDS011;25972;51.854;4.534;2023-07-31T01:35:50;16.90;;;4.05;;
40252;SDS011;25972;51.854;4.534;2023-07-31T01:38:20;14.38;;;4.35;;
40252;SDS011;25972;51.854;4.534;2023-07-31T01:40:49;21.23;;;4.90;;
40252;SDS011;25972;51.854;4.534;2023-07-31T01:43:17;11.00;;;3.90;;
40252;SDS011;25972;51.854;4.534;2023-07-31T01:45:46;14.77;;;4.05;;
40252;SDS011;25972;51.854;4.534;2023-07-31T01:48:16;18.90;;;4.75;;
40252;SDS011;25972;51.854;4.534;2023-07-31T01:50:43;16.98;;;4.65;;
40252;SDS011;25972;51.854;4.534;2023-07-31T01:53:12;13.63;;;2.17;;
40252;SDS011;25972;51.854;4.534;2023-07-31T01:55:38;17.27;;;4.50;;
40252;SDS011;25972;51.854;4.534;2023-07-31T01:58:06;21.15;;;5.53;;
40252;SDS011;25972;51.854;4.534;2023-07-31T02:00:32;14.75;;;3.65;;
40252;SDS011;25972;51.854;4.534;2023-07-31T02:02:59;21.85;;;3.70;;
40252;SDS011;25972;51.854;4.534;2023-07-31T02:05:25;16.70;;;4.90;;
40252;SDS011;25972;51.854;4.534;2023-07-31T02:07:51;15.65;;;4.82;;
40252;SDS011;25972;51.854;4.534;2023-07-31T02:10:17;25.05;;;3.85;;
40252;SDS011;25972;51.854;4.534;2023-07-31T02:12:45;12.02;;;3.25;;
40252;SDS011;25972;51.854;4.534;2023-07-31T02:15:13;13.15;;;3.28;;
40252;SDS011;25972;51.854;4.534;2023-07-31T02:17:39;15.82;;;3.70;;
40252;SDS011;25972;51.854;4.534;2023-07-31T02:20:06;13.02;;;3.88;;
40252;SDS011;25972;51.854;4.534;2023-07-31T02:22:33;18.52;;;4.45;;
40252;SDS011;25972;51.854;4.534;2023-07-31T02:24:59;15.73;;;5.60;;
40252;SDS011;25972;51.854;4.534;2023-07-31T02:27:25;22.63;;;5.60;;
40252;SDS011;25972;51.854;4.534;2023-07-31T02:29:52;18.02;;;4.43;;
40252;SDS011;25972;51.854;4.534;2023-07-31T02:32:21;17.02;;;5.18;;
40252;SDS011;25972;51.854;4.534;2023-07-31T02:34:47;21.98;;;5.43;;
40252;SDS011;25972;51.854;4.534;2023-07-31T02:37:16;16.27;;;4.90;;
40252;SDS011;25972;51.854;4.534;2023-07-31T02:39:42;14.55;;;3.70;;
40252;SDS011;25972;51.854;4.534;2023-07-31T02:42:08;16.30;;;5.55;;
40252;SDS011;25972;51.854;4.534;2023-07-31T02:44:36;14.85;;;4.30;;
40252;SDS011;25972;51.854;4.534;2023-07-31T02:47:02;18.05;;;5.60;;
40252;SDS011;25972;51.854;4.534;2023-07-31T02:49:30;10.50;;;3.10;;
40252;SDS011;25972;51.854;4.534;2023-07-31T02:51:56;20.13;;;4.32;;
40252;SDS011;25972;51.854;4.534;2023-07-31T02:54:22;17.77;;;4.38;;
40252;SDS011;25972;51.854;4.534;2023-07-31T02:56:51;17.00;;;4.38;;
40252;SDS011;25972;51.854;4.534;2023-07-31T02:59:17;11.60;;;3.45;;
40252;SDS011;25972;51.854;4.534;2023-07-31T03:01:45;21.35;;;4.97;;
40252;SDS011;25972;51.854;4.534;2023-07-31T03:04:11;20.33;;;5.00;;
40252;SDS011;25972;51.854;4.534;2023-07-31T03:06:39;14.57;;;4.32;;
40252;SDS011;25972;51.854;4.534;2023-07-31T03:09:05;17.58;;;4.20;;
40252;SDS011;25972;51.854;4.534;2023-07-31T03:11:34;16.92;;;3.78;;
40252;SDS011;25972;51.854;4.534;2023-07-31T03:14:02;18.60;;;4.40;;
40252;SDS011;25972;51.854;4.534;2023-07-31T03:16:29;14.07;;;4.25;;
40252;SDS011;25972;51.854;4.534;2023-07-31T03:18:55;6.57;;;2.40;;
40252;SDS011;25972;51.854;4.534;2023-07-31T03:21:21;15.45;;;4.30;;
40252;SDS011;25972;51.854;4.534;2023-07-31T03:23:49;18.10;;;4.25;;
40252;SDS011;25972;51.854;4.534;2023-07-31T03:26:15;14.40;;;3.80;;
40252;SDS011;25972;51.854;4.534;2023-07-31T03:28:41;17.38;;;3.42;;
40252;SDS011;25972;51.854;4.534;2023-07-31T03:31:09;9.05;;;2.72;;
40252;SDS011;25972;51.854;4.534;2023-07-31T03:33:36;14.82;;;3.60;;
40252;SDS011;25972;51.854;4.534;2023-07-31T03:36:02;8.68;;;3.00;;
40252;SDS011;25972;51.854;4.534;2023-07-31T03:38:29;14.82;;;4.90;;
40252;SDS011;25972;51.854;4.534;2023-07-31T03:40:57;12.82;;;3.75;;
40252;SDS011;25972;51.854;4.534;2023-07-31T03:43:24;18.60;;;4.05;;
40252;SDS011;25972;51.854;4.534;2023-07-31T03:45:51;18.80;;;5.15;;
40252;SDS011;25972;51.854;4.534;2023-07-31T03:48:17;14.00;;;3.97;;
40252;SDS011;25972;51.854;4.534;2023-07-31T03:50:47;17.88;;;4.30;;
40252;SDS011;25972;51.854;4.534;2023-07-31T03:53:13;13.75;;;4.18;;
40252;SDS011;25972;51.854;4.534;2023-07-31T03:55:40;14.57;;;4.25;;
40252;SDS011;25972;51.854;4.534;2023-07-31T03:58:07;12.88;;;3.45;;
40252;SDS011;25972;51.854;4.534;2023-07-31T04:00:33;15.65;;;4.35;;
40252;SDS011;25972;51.854;4.534;2023-07-31T04:02:59;18.92;;;4.53;;
40252;SDS011;25972;51.854;4.534;2023-07-31T04:05:25;6.38;;;2.05;;
40252;SDS011;25972;51.854;4.534;2023-07-31T04:07:51;14.52;;;3.67;;
40252;SDS011;25972;51.854;4.534;2023-07-31T04:10:17;12.70;;;3.72;;
40252;SDS011;25972;51.854;4.534;2023-07-31T04:12:44;4.55;;;2.33;;
40252;SDS011;25972;51.854;4.534;2023-07-31T04:15:11;10.73;;;3.47;;
40252;SDS011;25972;51.854;4.534;2023-07-31T04:17:37;9.15;;;3.67;;
40252;SDS011;25972;51.854;4.534;2023-07-31T04:20:04;16.70;;;4.28;;
40252;SDS011;25972;51.854;4.534;2023-07-31T04:22:31;7.57;;;2.22;;
40252;SDS011;25972;51.854;4.534;2023-07-31T04:24:57;11.27;;;3.05;;
40252;SDS011;25972;51.854;4.534;2023-07-31T04:27:24;11.52;;;3.95;;
40252;SDS011;25972;51.854;4.534;2023-07-31T04:29:50;12.43;;;4.22;;
40252;SDS011;25972;51.854;4.534;2023-07-31T04:32:18;8.98;;;3.33;;
40252;SDS011;25972;51.854;4.534;2023-07-31T04:34:47;14.10;;;3.90;;
40252;SDS011;25972;51.854;4.534;2023-07-31T04:37:13;15.40;;;4.22;;
40252;SDS011;25972;51.854;4.534;2023-07-31T04:39:40;13.82;;;3.25;;
40252;SDS011;25972;51.854;4.534;2023-07-31T04:42:06;18.35;;;4.07;;
40252;SDS011;25972;51.854;4.534;2023-07-31T04:44:32;18.98;;;4.47;;
40252;SDS011;25972;51.854;4.534;2023-07-31T04:46:58;10.25;;;2.53;;
40252;SDS011;25972;51.854;4.534;2023-07-31T04:49:26;7.25;;;2.40;;
40252;SDS011;25972;51.854;4.534;2023-07-31T04:51:52;6.95;;;2.65;;
40252;SDS011;25972;51.854;4.534;2023-07-31T04:54:20;4.50;;;1.77;;
40252;SDS011;25972;51.854;4.534;2023-07-31T04:56:46;11.70;;;3.85;;
40252;SDS011;25972;51.854;4.534;2023-07-31T04:59:13;13.23;;;3.30;;
40252;SDS011;25972;51.854;4.534;2023-07-31T05:01:39;10.27;;;2.50;;
40252;SDS011;25972;51.854;4.534;2023-07-31T05:04:05;6.20;;;2.05;;
40252;SDS011;25972;51.854;4.534;2023-07-31T05:06:32;10.48;;;2.45;;
40252;SDS011;25972;51.854;4.534;2023-07-31T05:08:58;9.23;;;3.42;;
40252;SDS011;25972;51.854;4.534;2023-07-31T05:11:26;8.00;;;2.67;;
40252;SDS011;25972;51.854;4.534;2023-07-31T05:13:52;7.35;;;2.10;;
40252;SDS011;25972;51.854;4.534;2023-07-31T05:16:18;8.68;;;3.15;;
40252;SDS011;25972;51.854;4.534;2023-07-31T05:18:44;5.18;;;1.90;;
40252;SDS011;25972;51.854;4.534;2023-07-31T05:21:11;8.95;;;3.05;;
40252;SDS011;25972;51.854;4.534;2023-07-31T05:23:38;8.13;;;3.30;;
40252;SDS011;25972;51.854;4.534;2023-07-31T05:26:04;2.08;;;1.48;;
40252;SDS011;25972;51.854;4.534;2023-07-31T05:28:33;7.40;;;2.13;;
40252;SDS011;25972;51.854;4.534;2023-07-31T05:31:00;7.10;;;2.15;;
40252;SDS011;25972;51.854;4.534;2023-07-31T05:33:29;7.72;;;2.92;;
40252;SDS011;25972;51.854;4.534;2023-07-31T05:35:56;9.18;;;2.75;;
40252;SDS011;25972;51.854;4.534;2023-07-31T05:38:22;3.35;;;2.10;;
40252;SDS011;25972;51.854;4.534;2023-07-31T05:40:50;2.72;;;1.35;;
40252;SDS011;25972;51.854;4.534;2023-07-31T05:43:16;6.28;;;2.60;;
40252;SDS011;25972;51.854;4.534;2023-07-31T05:45:42;11.10;;;3.20;;
40252;SDS011;25972;51.854;4.534;2023-07-31T05:48:08;10.20;;;2.90;;
40252;SDS011;25972;51.854;4.534;2023-07-31T05:50:34;8.02;;;3.00;;
40252;SDS011;25972;51.854;4.534;2023-07-31T05:53:02;2.08;;;1.33;;
40252;SDS011;25972;51.854;4.534;2023-07-31T05:55:33;11.02;;;3.30;;
40252;SDS011;25972;51.854;4.534;2023-07-31T05:58:00;10.57;;;2.95;;
40252;SDS011;25972;51.854;4.534;2023-07-31T06:00:26;5.72;;;2.20;;
40252;SDS011;25972;51.854;4.534;2023-07-31T06:02:53;8.00;;;2.45;;
40252;SDS011;25972;51.854;4.534;2023-07-31T06:05:22;8.45;;;2.92;;
40252;SDS011;25972;51.854;4.534;2023-07-31T06:07:48;10.73;;;3.03;;
40252;SDS011;25972;51.854;4.534;2023-07-31T06:10:14;5.18;;;2.13;;
40252;SDS011;25972;51.854;4.534;2023-07-31T06:12:40;11.57;;;2.58;;
40252;SDS011;25972;51.854;4.534;2023-07-31T06:15:08;16.75;;;4.22;;
40252;SDS011;25972;51.854;4.534;2023-07-31T06:17:35;6.38;;;2.65;;
40252;SDS011;25972;51.854;4.534;2023-07-31T06:20:01;6.85;;;2.65;;
40252;SDS011;25972;51.854;4.534;2023-07-31T06:22:30;3.72;;;1.70;;
40252;SDS011;25972;51.854;4.534;2023-07-31T06:24:56;4.65;;;1.98;;
40252;SDS011;25972;51.854;4.534;2023-07-31T06:27:23;6.70;;;2.30;;
40252;SDS011;25972;51.854;4.534;2023-07-31T06:29:49;5.45;;;1.40;;
40252;SDS011;25972;51.854;4.534;2023-07-31T06:32:16;4.28;;;1.58;;
40252;SDS011;25972;51.854;4.534;2023-07-31T06:34:42;7.70;;;2.65;;
40252;SDS011;25972;51.854;4.534;2023-07-31T06:37:08;7.78;;;2.05;;
40252;SDS011;25972;51.854;4.534;2023-07-31T06:39:34;8.32;;;2.63;;
40252;SDS011;25972;51.854;4.534;2023-07-31T06:42:04;4.78;;;1.27;;
40252;SDS011;25972;51.854;4.534;2023-07-31T06:44:30;12.85;;;2.42;;
40252;SDS011;25972;51.854;4.534;2023-07-31T06:46:56;3.95;;;1.63;;
40252;SDS011;25972;51.854;4.534;2023-07-31T06:49:23;3.47;;;1.55;;
40252;SDS011;25972;51.854;4.534;2023-07-31T06:51:49;4.95;;;2.00;;
40252;SDS011;25972;51.854;4.534;2023-07-31T06:54:15;4.00;;;1.40;;
40252;SDS011;25972;51.854;4.534;2023-07-31T06:56:41;3.13;;;1.90;;
40252;SDS011;25972;51.854;4.534;2023-07-31T06:59:07;3.92;;;2.08;;
40252;SDS011;25972;51.854;4.534;2023-07-31T07:01:33;5.20;;;2.00;;
40252;SDS011;25972;51.854;4.534;2023-07-31T07:03:59;4.38;;;1.80;;
40252;SDS011;25972;51.854;4.534;2023-07-31T07:06:27;1.60;;;0.98;;
40252;SDS011;25972;51.854;4.534;2023-07-31T07:08:53;2.47;;;0.90;;
40252;SDS011;25972;51.854;4.534;2023-07-31T07:11:21;2.08;;;1.30;;
40252;SDS011;25972;51.854;4.534;2023-07-31T07:14:12;2.42;;;1.15;;
40252;SDS011;25972;51.854;4.534;2023-07-31T07:16:38;4.55;;;1.88;;
40252;SDS011;25972;51.854;4.534;2023-07-31T07:19:06;2.70;;;1.10;;
40252;SDS011;25972;51.854;4.534;2023-07-31T07:21:33;3.20;;;1.20;;
40252;SDS011;25972;51.854;4.534;2023-07-31T07:23:59;6.65;;;2.30;;
40252;SDS011;25972;51.854;4.534;2023-07-31T07:26:26;6.28;;;1.95;;
40252;SDS011;25972;51.854;4.534;2023-07-31T07:28:52;3.67;;;2.00;;
40252;SDS011;25972;51.854;4.534;2023-07-31T07:31:18;3.20;;;2.00;;
40252;SDS011;25972;51.854;4.534;2023-07-31T07:33:44;3.63;;;1.80;;
40252;SDS011;25972;51.854;4.534;2023-07-31T07:36:10;3.53;;;1.55;;
40252;SDS011;25972;51.854;4.534;2023-07-31T07:38:39;2.10;;;1.23;;
40252;SDS011;25972;51.854;4.534;2023-07-31T07:41:06;4.47;;;1.65;;
40252;SDS011;25972;51.854;4.534;2023-07-31T07:43:32;2.28;;;1.40;;
40252;SDS011;25972;51.854;4.534;2023-07-31T07:45:58;1.17;;;0.90;;
40252;SDS011;25972;51.854;4.534;2023-07-31T07:48:24;1.35;;;0.80;;
40252;SDS011;25972;51.854;4.534;2023-07-31T07:50:50;2.35;;;1.40;;
40252;SDS011;25972;51.854;4.534;2023-07-31T07:53:16;1.60;;;0.82;;
40252;SDS011;25972;51.854;4.534;2023-07-31T07:55:44;3.38;;;1.58;;
40252;SDS011;25972;51.854;4.534;2023-07-31T07:58:10;4.40;;;1.10;;
40252;SDS011;25972;51.854;4.534;2023-07-31T08:00:37;1.73;;;1.00;;
40252;SDS011;25972;51.854;4.534;2023-07-31T08:03:03;3.65;;;1.67;;
40252;SDS011;25972;51.854;4.534;2023-07-31T08:05:29;3.40;;;2.05;;
40252;SDS011;25972;51.854;4.534;2023-07-31T08:07:59;4.80;;;1.80;;
40252;SDS011;25972;51.854;4.534;2023-07-31T08:10:26;4.75;;;2.28;;
40252;SDS011;25972;51.854;4.534;2023-07-31T08:12:54;5.80;;;2.28;;
40252;SDS011;25972;51.854;4.534;2023-07-31T08:15:20;5.88;;;1.70;;
40252;SDS011;25972;51.854;4.534;2023-07-31T08:17:46;5.82;;;2.13;;
40252;SDS011;25972;51.854;4.534;2023-07-31T08:20:12;6.13;;;2.20;;
40252;SDS011;25972;51.854;4.534;2023-07-31T08:22:39;3.65;;;1.55;;
40252;SDS011;25972;51.854;4.534;2023-07-31T08:25:08;5.78;;;2.10;;
40252;SDS011;25972;51.854;4.534;2023-07-31T08:27:34;2.40;;;1.50;;
40252;SDS011;25972;51.854;4.534;2023-07-31T08:30:05;3.30;;;1.75;;
40252;SDS011;25972;51.854;4.534;2023-07-31T08:32:32;6.38;;;2.35;;
40252;SDS011;25972;51.854;4.534;2023-07-31T08:34:58;3.67;;;2.30;;
40252;SDS011;25972;51.854;4.534;2023-07-31T08:37:24;3.42;;;2.20;;
40252;SDS011;25972;51.854;4.534;2023-07-31T08:39:50;5.15;;;2.40;;
40252;SDS011;25972;51.854;4.534;2023-07-31T08:42:16;7.05;;;2.38;;
40252;SDS011;25972;51.854;4.534;2023-07-31T08:44:43;4.32;;;2.03;;
40252;SDS011;25972;51.854;4.534;2023-07-31T08:47:11;2.10;;;1.10;;
40252;SDS011;25972;51.854;4.534;2023-07-31T08:49:38;3.85;;;1.80;;
40252;SDS011;25972;51.854;4.534;2023-07-31T08:52:06;1.33;;;0.85;;
40252;SDS011;25972;51.854;4.534;2023-07-31T08:54:32;2.80;;;1.58;;
40252;SDS011;25972;51.854;4.534;2023-07-31T08:57:00;3.45;;;1.70;;
40252;SDS011;25972;51.854;4.534;2023-07-31T08:59:26;5.38;;;2.45;;
40252;SDS011;25972;51.854;4.534;2023-07-31T09:01:55;8.45;;;2.20;;
40252;SDS011;25972;51.854;4.534;2023-07-31T09:04:24;4.18;;;2.20;;
40252;SDS011;25972;51.854;4.534;2023-07-31T09:06:51;2.78;;;1.10;;
40252;SDS011;25972;51.854;4.534;2023-07-31T09:09:22;6.68;;;2.55;;
40252;SDS011;25972;51.854;4.534;2023-07-31T09:11:51;3.05;;;1.40;;
40252;SDS011;25972;51.854;4.534;2023-07-31T09:14:21;8.68;;;2.75;;
40252;SDS011;25972;51.854;4.534;2023-07-31T09:16:54;8.82;;;2.80;;
40252;SDS011;25972;51.854;4.534;2023-07-31T09:19:31;6.88;;;3.15;;
40252;SDS011;25972;51.854;4.534;2023-07-31T09:21:59;3.28;;;1.88;;
40252;SDS011;25972;51.854;4.534;2023-07-31T09:24:26;9.18;;;3.25;;
40252;SDS011;25972;51.854;4.534;2023-07-31T09:26:53;8.95;;;1.73;;
40252;SDS011;25972;51.854;4.534;2023-07-31T09:29:24;3.53;;;1.85;;
40252;SDS011;25972;51.854;4.534;2023-07-31T09:31:51;8.55;;;1.45;;
40252;SDS011;25972;51.854;4.534;2023-07-31T09:34:18;4.05;;;1.15;;
40252;SDS011;25972;51.854;4.534;2023-07-31T09:36:46;6.32;;;2.75;;
40252;SDS011;25972;51.854;4.534;2023-07-31T09:39:15;2.15;;;1.35;;
40252;SDS011;25972;51.854;4.534;2023-07-31T09:41:43;7.05;;;2.75;;
40252;SDS011;25972;51.854;4.534;2023-07-31T09:44:10;3.90;;;1.77;;
40252;SDS011;25972;51.854;4.534;2023-07-31T09:46:37;5.75;;;2.15;;
40252;SDS011;25972;51.854;4.534;2023-07-31T09:49:03;4.90;;;2.30;;
40252;SDS011;25972;51.854;4.534;2023-07-31T09:51:31;4.38;;;2.13;;
40252;SDS011;25972;51.854;4.534;2023-07-31T09:54:05;3.10;;;1.05;;
40252;SDS011;25972;51.854;4.534;2023-07-31T09:56:41;5.38;;;2.13;;
40252;SDS011;25972;51.854;4.534;2023-07-31T09:59:10;4.53;;;1.33;;
40252;SDS011;25972;51.854;4.534;2023-07-31T10:01:37;2.72;;;1.15;;
40252;SDS011;25972;51.854;4.534;2023-07-31T10:04:04;4.45;;;1.90;;
40252;SDS011;25972;51.854;4.534;2023-07-31T10:06:33;4.25;;;1.60;;
40252;SDS011;25972;51.854;4.534;2023-07-31T10:09:00;3.78;;;1.35;;
40252;SDS011;25972;51.854;4.534;2023-07-31T10:11:30;2.28;;;1.33;;
40252;SDS011;25972;51.854;4.534;2023-07-31T10:13:59;4.60;;;1.90;;
40252;SDS011;25972;51.854;4.534;2023-07-31T10:16:25;2.95;;;1.55;;
40252;SDS011;25972;51.854;4.534;2023-07-31T10:18:52;4.53;;;2.00;;
40252;SDS011;25972;51.854;4.534;2023-07-31T10:21:19;0.50;;;0.45;;
40252;SDS011;25972;51.854;4.534;2023-07-31T10:23:45;6.47;;;1.90;;
40252;SDS011;25972;51.854;4.534;2023-07-31T10:26:13;4.10;;;1.63;;
40252;SDS011;25972;51.854;4.534;2023-07-31T10:28:41;4.68;;;2.25;;
40252;SDS011;25972;51.854;4.534;2023-07-31T10:31:08;3.28;;;1.33;;
40252;SDS011;25972;51.854;4.534;2023-07-31T10:33:35;2.90;;;1.63;;
40252;SDS011;25972;51.854;4.534;2023-07-31T10:36:14;4.50;;;2.10;;
40252;SDS011;25972;51.854;4.534;2023-07-31T10:38:42;4.38;;;1.73;;
40252;SDS011;25972;51.854;4.534;2023-07-31T10:41:09;3.75;;;1.85;;
40252;SDS011;25972;51.854;4.534;2023-07-31T10:43:36;4.07;;;2.05;;
40252;SDS011;25972;51.854;4.534;2023-07-31T10:46:07;4.68;;;1.80;;
40252;SDS011;25972;51.854;4.534;2023-07-31T10:48:34;5.38;;;2.50;;
40252;SDS011;25972;51.854;4.534;2023-07-31T10:51:04;4.50;;;2.33;;
40252;SDS011;25972;51.854;4.534;2023-07-31T10:53:33;8.65;;;3.38;;
40252;SDS011;25972;51.854;4.534;2023-07-31T10:55:59;5.38;;;1.88;;
40252;SDS011;25972;51.854;4.534;2023-07-31T10:58:29;9.15;;;4.13;;
40252;SDS011;25972;51.854;4.534;2023-07-31T11:00:57;8.30;;;4.00;;
40252;SDS011;25972;51.854;4.534;2023-07-31T11:03:26;4.68;;;2.08;;
40252;SDS011;25972;51.854;4.534;2023-07-31T11:06:06;3.88;;;2.58;;
40252;SDS011;25972;51.854;4.534;2023-07-31T11:08:35;7.80;;;3.15;;
40252;SDS011;25972;51.854;4.534;2023-07-31T11:11:08;4.55;;;2.55;;
40252;SDS011;25972;51.854;4.534;2023-07-31T11:13:40;7.28;;;3.00;;
40252;SDS011;25972;51.854;4.534;2023-07-31T11:16:07;4.93;;;2.05;;
40252;SDS011;25972;51.854;4.534;2023-07-31T11:18:37;3.10;;;1.73;;
40252;SDS011;25972;51.854;4.534;2023-07-31T11:21:04;7.25;;;3.47;;
40252;SDS011;25972;51.854;4.534;2023-07-31T11:23:36;6.32;;;3.40;;
40252;SDS011;25972;51.854;4.534;2023-07-31T11:26:04;4.20;;;1.50;;
40252;SDS011;25972;51.854;4.534;2023-07-31T11:28:33;5.32;;;2.65;;
40252;SDS011;25972;51.854;4.534;2023-07-31T11:30:59;4.28;;;2.28;;
40252;SDS011;25972;51.854;4.534;2023-07-31T11:33:26;5.88;;;2.40;;
40252;SDS011;25972;51.854;4.534;2023-07-31T11:35:53;3.67;;;2.13;;
40252;SDS011;25972;51.854;4.534;2023-07-31T11:38:23;5.75;;;2.80;;
40252;SDS011;25972;51.854;4.534;2023-07-31T11:40:51;5.60;;;2.83;;
40252;SDS011;25972;51.854;4.534;2023-07-31T11:43:17;4.00;;;2.42;;
40252;SDS011;25972;51.854;4.534;2023-07-31T11:45:47;4.95;;;2.42;;
40252;SDS011;25972;51.854;4.534;2023-07-31T11:48:21;5.68;;;2.28;;
40252;SDS011;25972;51.854;4.534;2023-07-31T11:50:49;4.47;;;2.50;;
40252;SDS011;25972;51.854;4.534;2023-07-31T11:53:20;5.57;;;2.58;;
40252;SDS011;25972;51.854;4.534;2023-07-31T11:55:50;5.97;;;2.53;;
40252;SDS011;25972;51.854;4.534;2023-07-31T11:58:17;3.92;;;2.08;;
40252;SDS011;25972;51.854;4.534;2023-07-31T12:00:44;6.13;;;2.75;;
40252;SDS011;25972;51.854;4.534;2023-07-31T12:03:11;6.53;;;2.38;;
40252;SDS011;25972;51.854;4.534;2023-07-31T12:05:37;4.35;;;2.30;;
40252;SDS011;25972;51.854;4.534;2023-07-31T12:08:08;6.68;;;2.70;;
40252;SDS011;25972;51.854;4.534;2023-07-31T12:10:38;5.22;;;2.22;;
40252;SDS011;25972;51.854;4.534;2023-07-31T12:13:07;5.78;;;2.50;;
40252;SDS011;25972;51.854;4.534;2023-07-31T12:15:40;5.38;;;2.40;;
40252;SDS011;25972;51.854;4.534;2023-07-31T12:18:08;3.30;;;2.33;;
40252;SDS011;25972;51.854;4.534;2023-07-31T12:20:41;5.00;;;2.35;;
40252;SDS011;25972;51.854;4.534;2023-07-31T12:23:13;5.18;;;2.95;;
40252;SDS011;25972;51.854;4.534;2023-07-31T12:25:41;5.65;;;2.55;;
40252;SDS011;25972;51.854;4.534;2023-07-31T12:28:08;5.15;;;2.00;;
40252;SDS011;25972;51.854;4.534;2023-07-31T12:30:37;7.13;;;2.45;;
40252;SDS011;25972;51.854;4.534;2023-07-31T12:33:05;2.28;;;1.13;;
40252;SDS011;25972;51.854;4.534;2023-07-31T12:35:40;2.80;;;1.67;;
40252;SDS011;25972;51.854;4.534;2023-07-31T12:38:09;5.13;;;2.38;;
40252;SDS011;25972;51.854;4.534;2023-07-31T12:40:36;3.83;;;2.10;;
40252;SDS011;25972;51.854;4.534;2023-07-31T12:43:04;3.38;;;1.73;;
40252;SDS011;25972;51.854;4.534;2023-07-31T12:45:32;3.10;;;1.80;;
40252;SDS011;25972;51.854;4.534;2023-07-31T12:47:58;3.30;;;1.75;;
40252;SDS011;25972;51.854;4.534;2023-07-31T12:50:25;3.63;;;1.85;;
40252;SDS011;25972;51.854;4.534;2023-07-31T12:52:51;3.53;;;1.35;;
40252;SDS011;25972;51.854;4.534;2023-07-31T12:55:19;3.15;;;1.48;;
40252;SDS011;25972;51.854;4.534;2023-07-31T12:57:45;2.95;;;1.52;;
40252;SDS011;25972;51.854;4.534;2023-07-31T13:00:13;2.63;;;1.50;;
40252;SDS011;25972;51.854;4.534;2023-07-31T13:02:40;2.92;;;1.40;;
40252;SDS011;25972;51.854;4.534;2023-07-31T13:05:06;2.42;;;1.33;;
40252;SDS011;25972;51.854;4.534;2023-07-31T13:07:32;3.13;;;1.80;;
40252;SDS011;25972;51.854;4.534;2023-07-31T13:09:58;4.93;;;2.08;;
40252;SDS011;25972;51.854;4.534;2023-07-31T13:12:24;4.10;;;2.05;;
40252;SDS011;25972;51.854;4.534;2023-07-31T13:14:51;5.10;;;2.17;;
40252;SDS011;25972;51.854;4.534;2023-07-31T13:17:18;3.65;;;1.80;;
40252;SDS011;25972;51.854;4.534;2023-07-31T13:19:45;6.10;;;2.65;;
40252;SDS011;25972;51.854;4.534;2023-07-31T13:22:11;2.92;;;1.77;;
40252;SDS011;25972;51.854;4.534;2023-07-31T13:24:37;4.82;;;2.30;;
40252;SDS011;25972;51.854;4.534;2023-07-31T13:27:03;1.27;;;1.00;;
40252;SDS011;25972;51.854;4.534;2023-07-31T13:29:30;5.32;;;2.20;;
40252;SDS011;25972;51.854;4.534;2023-07-31T13:31:57;1.38;;;1.00;;
40252;SDS011;25972;51.854;4.534;2023-07-31T13:34:25;1.02;;;0.95;;
40252;SDS011;25972;51.854;4.534;2023-07-31T13:36:51;1.73;;;1.00;;
40252;SDS011;25972;51.854;4.534;2023-07-31T13:39:19;2.17;;;0.85;;
40252;SDS011;25972;51.854;4.534;2023-07-31T13:41:46;3.85;;;1.42;;
40252;SDS011;25972;51.854;4.534;2023-07-31T13:44:12;4.78;;;1.20;;
40252;SDS011;25972;51.854;4.534;2023-07-31T13:46:39;3.63;;;2.00;;
40252;SDS011;25972;51.854;4.534;2023-07-31T13:49:05;3.22;;;1.75;;
40252;SDS011;25972;51.854;4.534;2023-07-31T13:51:33;11.23;;;1.38;;
40252;SDS011;25972;51.854;4.534;2023-07-31T13:53:59;3.67;;;1.63;;
40252;SDS011;25972;51.854;4.534;2023-07-31T13:56:26;2.22;;;1.40;;
40252;SDS011;25972;51.854;4.534;2023-07-31T13:58:52;0.90;;;0.90;;
40252;SDS011;25972;51.854;4.534;2023-07-31T14:01:21;5.65;;;1.00;;
40252;SDS011;25972;51.854;4.534;2023-07-31T14:03:48;0.93;;;0.85;;
40252;SDS011;25972;51.854;4.534;2023-07-31T14:06:16;3.50;;;1.95;;
40252;SDS011;25972;51.854;4.534;2023-07-31T14:08:43;4.50;;;2.20;;
40252;SDS011;25972;51.854;4.534;2023-07-31T14:11:09;4.15;;;1.98;;
40252;SDS011;25972;51.854;4.534;2023-07-31T14:13:35;4.28;;;1.90;;
40252;SDS011;25972;51.854;4.534;2023-07-31T14:16:02;5.88;;;2.83;;
40252;SDS011;25972;51.854;4.534;2023-07-31T14:18:29;5.95;;;2.78;;
40252;SDS011;25972;51.854;4.534;2023-07-31T14:21:02;5.25;;;2.83;;
40252;SDS011;25972;51.854;4.534;2023-07-31T14:23:29;5.32;;;2.40;;
40252;SDS011;25972;51.854;4.534;2023-07-31T14:25:57;6.63;;;2.90;;
40252;SDS011;25972;51.854;4.534;2023-07-31T14:28:23;5.80;;;2.65;;
40252;SDS011;25972;51.854;4.534;2023-07-31T14:30:49;5.13;;;2.58;;
40252;SDS011;25972;51.854;4.534;2023-07-31T14:33:15;6.07;;;2.72;;
40252;SDS011;25972;51.854;4.534;2023-07-31T14:35:42;3.42;;;1.17;;
40252;SDS011;25972;51.854;4.534;2023-07-31T14:38:08;7.57;;;2.38;;
40252;SDS011;25972;51.854;4.534;2023-07-31T14:40:34;5.43;;;1.35;;
40252;SDS011;25972;51.854;4.534;2023-07-31T14:43:05;1.20;;;1.02;;
40252;SDS011;25972;51.854;4.534;2023-07-31T14:45:32;5.07;;;2.17;;
40252;SDS011;25972;51.854;4.534;2023-07-31T14:47:58;2.45;;;1.52;;